Aeroporto :
LOGIN :

Iscrizione | Disclaimer

   EN    FR    IT 

 










Sommario :    VFR   VFR Marginale   IFR   IFR Intensivo   IFR Molto Intensivo
Visibilità : 
Base nubi : 
>= 8 km
>= 3000ft
5 / 8 km
1000 / 3000 ft
1500m / 5 km
500 / 1000 ft
800 / 1500m
200 / 500 ft
< 800m
< 200 ft
Simboli :   Temporali  Nebbia  Neve Forte  Precipitazioni Forti  Vento > 20 kt
SIGMETs :   Varie  Temporali  Ghiacco  Turbolenza  Onda orograficha  Ceneri Vulcaniche






- Altitudine del aeroporto : 885 ft
- Codice IATA : BAS


LFSB - Bale-Mulhouse

ULTIMO METAR :
  • 080600Z AUTO VRB02KT 9000 NSC M06/M08 Q1034 NOSIG

METARs OBSOLETI :
  • 080530Z AUTO 00000KT CAVOK M06/M07 Q1034 NOSIG
  • 080500Z AUTO 28002KT CAVOK M06/M07 Q1034 NOSIG
  • 080430Z AUTO 27003KT CAVOK M05/M07 Q1034 NOSIG
  • 080400Z AUTO 31003KT CAVOK M05/M07 Q1034 NOSIG
  • 080330Z AUTO 29002KT CAVOK M05/M07 Q1034 NOSIG
  • 080300Z AUTO 32004KT CAVOK M05/M07 Q1034 NOSIG

TAF TAF LFSB
Valido dal 08 a 06 ore il 09 a 06 ore UTC


080500Z 0806/0906 30005KT CAVOK
Met : +33 3 89 90 31 11



MetMap, La meteo Aeronautica in un colpo d'occhio ! - Copyright ORBIFLY Dicembre 2007 - Disclaimer

ORBIFLY MET'MAP TEAM :

Programmazione e sviluppo : Alexandra Zaïnal
Concezione : Baudouin d'Aumeries
Supporto tecnico e logistico : Manuel Goepfert
Aiuto : Marc-Olivier Méhu
Aiuto per la traduzione : Arnaldo La Scala




FONTI E CREDITI :

   NOAA